Time;durP1;ratioP1;P1;durP2;ratioP2;P2;SDS_P1;SDS_P2;PMS_P1;PMS_P2;Temp;Humidity;BMP_temperature;BMP_pressure;BME280_temperature;BME280_humidity;BME280_pressure;Samples;Min_cycle;Max_cycle;Signal;HPM_P1;HPM_P2
2022/06/07 00:01:35;;;;;;;6.22;3.30;;;;;;;;;;4991820;28;20376;-78
2022/06/07 00:04:01;;;;;;;3.58;3.00;;;;;;;;;;4992384;28;20027;-78
2022/06/07 00:06:28;;;;;;;5.78;3.47;;;;;;;;;;4991480;28;20033;-78
2022/06/07 00:08:53;;;;;;;4.13;3.00;;;;;;;;;;4992622;28;20030;-79
2022/06/07 00:11:19;;;;;;;3.80;3.30;;;;;;;;;;4992124;28;20490;-78
2022/06/07 00:13:46;;;;;;;3.72;3.15;;;;;;;;;;4990667;28;20108;-79
2022/06/07 00:16:13;;;;;;;5.65;2.92;;;;;;;;;;4989902;28;20084;-76
2022/06/07 00:18:38;;;;;;;6.60;3.17;;;;;;;;;;4991636;28;20463;-77
2022/06/07 00:21:04;;;;;;;3.53;3.22;;;;;;;;;;4989980;28;20092;-77
2022/06/07 00:23:31;;;;;;;8.07;3.63;;;;;;;;;;4970256;28;20061;-77
2022/06/07 00:25:58;;;;;;;6.93;3.17;;;;;;;;;;4970499;28;20031;-77
2022/06/07 00:28:24;;;;;;;3.97;3.33;;;;;;;;;;4970148;28;20038;-75
2022/06/07 00:30:51;;;;;;;6.50;3.63;;;;;;;;;;4971842;28;20046;-78
2022/06/07 00:33:17;;;;;;;4.05;2.95;;;;;;;;;;4970140;28;20399;-77
2022/06/07 00:35:43;;;;;;;6.40;3.78;;;;;;;;;;4970504;28;20086;-77
2022/06/07 00:38:09;;;;;;;7.80;3.67;;;;;;;;;;4971832;28;20030;-78
2022/06/07 00:40:36;;;;;;;4.72;3.17;;;;;;;;;;4970201;28;20042;-77
2022/06/07 00:43:01;;;;;;;6.30;3.35;;;;;;;;;;4971602;28;20106;-76
2022/06/07 00:45:27;;;;;;;3.78;3.40;;;;;;;;;;4971868;28;20106;-76
2022/06/07 00:47:52;;;;;;;3.30;3.00;;;;;;;;;;4971579;28;20038;-77
2022/06/07 00:50:39;;;;;;;8.63;3.50;;;;;;;;;;4970052;28;20023;-77
2022/06/07 00:53:15;;;;;;;7.78;3.15;;;;;;;;;;4970845;28;20542;-77
2022/06/07 00:55:41;;;;;;;5.95;3.85;;;;;;;;;;4972410;28;20074;-78
2022/06/07 00:58:06;;;;;;;6.03;3.17;;;;;;;;;;4973546;28;20027;-77
2022/06/07 01:00:32;;;;;;;3.85;3.42;;;;;;;;;;4975517;28;20106;-78
2022/06/07 01:02:57;;;;;;;10.30;3.40;;;;;;;;;;4973183;28;20482;-77
2022/06/07 01:05:23;;;;;;;5.03;3.90;;;;;;;;;;4970115;28;20057;-77
2022/06/07 01:10:44;;;;;;;6.13;3.88;;;;;;;;;;4971025;28;20082;-77
2022/06/07 01:13:11;;;;;;;4.13;3.65;;;;;;;;;;4970912;28;20023;-77
2022/06/07 01:15:37;;;;;;;5.95;3.72;;;;;;;;;;4969418;28;20019;-77
2022/06/07 01:18:03;;;;;;;6.43;3.53;;;;;;;;;;4969459;28;20037;-77
2022/06/07 01:20:30;;;;;;;6.90;3.55;;;;;;;;;;4969182;28;20109;-77
2022/06/07 01:22:56;;;;;;;8.93;4.13;;;;;;;;;;4984100;28;20065;-76
2022/06/07 01:25:23;;;;;;;4.15;3.50;;;;;;;;;;4989012;28;20022;-77
2022/06/07 01:27:48;;;;;;;4.32;3.03;;;;;;;;;;4988799;28;20610;-77
2022/06/07 01:30:14;;;;;;;5.13;3.40;;;;;;;;;;4988637;28;20038;-76
2022/06/07 01:32:40;;;;;;;4.55;3.33;;;;;;;;;;4990124;28;20542;-77
2022/06/07 01:35:07;;;;;;;5.60;3.67;;;;;;;;;;4990013;28;20105;-76
2022/06/07 01:37:33;;;;;;;5.57;3.50;;;;;;;;;;4989830;28;20084;-77
2022/06/07 01:42:42;;;;;;;5.15;3.70;;;;;;;;;;4990397;28;20033;-77
2022/06/07 01:45:08;;;;;;;5.68;3.92;;;;;;;;;;4990034;28;20038;-78
2022/06/07 01:47:35;;;;;;;6.35;3.90;;;;;;;;;;4990020;28;20045;-78
2022/06/07 01:50:02;;;;;;;6.03;4.15;;;;;;;;;;4988685;28;20042;-78
2022/06/07 01:52:30;;;;;;;6.18;3.60;;;;;;;;;;4988547;28;20030;-76
2022/06/07 01:54:56;;;;;;;4.35;3.65;;;;;;;;;;4988738;28;20030;-76
2022/06/07 01:57:23;;;;;;;4.03;3.53;;;;;;;;;;4989858;28;20057;-76
2022/06/07 01:59:48;;;;;;;4.30;3.65;;;;;;;;;;4988557;28;20070;-77
2022/06/07 02:02:14;;;;;;;4.88;3.75;;;;;;;;;;4988365;28;20034;-77
2022/06/07 02:04:42;;;;;;;5.10;4.35;;;;;;;;;;4989573;28;20101;-78
2022/06/07 02:07:09;;;;;;;6.85;3.72;;;;;;;;;;5021192;28;20022;-77
2022/06/07 02:09:35;;;;;;;4.53;3.42;;;;;;;;;;4988218;28;20097;-77
2022/06/07 02:12:01;;;;;;;4.10;3.70;;;;;;;;;;4989897;28;20037;-77
2022/06/07 02:14:28;;;;;;;4.72;3.40;;;;;;;;;;4989689;28;20081;-77
2022/06/07 02:16:53;;;;;;;5.45;3.28;;;;;;;;;;4988451;28;20069;-77
2022/06/07 02:19:19;;;;;;;4.18;3.33;;;;;;;;;;4989670;28;20479;-76
2022/06/07 02:21:44;;;;;;;7.75;3.55;;;;;;;;;;4982561;28;20305;-76
2022/06/07 02:24:10;;;;;;;4.18;3.78;;;;;;;;;;4968826;28;20248;-77
2022/06/07 02:26:55;;;;;;;5.82;3.70;;;;;;;;;;4968702;28;20034;-76
2022/06/07 02:29:26;;;;;;;4.20;3.15;;;;;;;;;;4968489;28;20037;-75
2022/06/07 02:31:57;;;;;;;5.38;4.00;;;;;;;;;;4972497;28;20039;-76
2022/06/07 02:34:23;;;;;;;7.05;3.20;;;;;;;;;;4972322;28;20037;-78
2022/06/07 02:36:55;;;;;;;3.33;3.03;;;;;;;;;;4972455;28;20113;-76
2022/06/07 02:39:21;;;;;;;3.35;3.03;;;;;;;;;;4972197;28;20497;-77
2022/06/07 02:41:47;;;;;;;4.63;3.42;;;;;;;;;;4972542;28;20133;-77
2022/06/07 02:44:12;;;;;;;3.38;3.08;;;;;;;;;;4972313;28;20027;-77
2022/06/07 02:46:38;;;;;;;9.23;3.67;;;;;;;;;;4973586;28;20541;-78
2022/06/07 02:49:04;;;;;;;4.20;3.25;;;;;;;;;;4972019;28;20504;-77
2022/06/07 02:51:29;;;;;;;9.32;3.38;;;;;;;;;;4971893;28;20030;-77
2022/06/07 02:53:56;;;;;;;6.72;4.03;;;;;;;;;;4972064;28;20115;-77
2022/06/07 02:56:22;;;;;;;5.47;3.65;;;;;;;;;;4972194;28;20035;-77
2022/06/07 02:58:48;;;;;;;5.10;3.33;;;;;;;;;;4972133;28;20031;-77
2022/06/07 03:01:13;;;;;;;6.85;3.08;;;;;;;;;;4972069;28;20045;-78
2022/06/07 03:03:39;;;;;;;3.70;3.25;;;;;;;;;;4971620;28;20049;-78
2022/06/07 03:06:05;;;;;;;4.85;3.10;;;;;;;;;;4972140;28;20034;-77
2022/06/07 03:08:30;;;;;;;5.18;3.30;;;;;;;;;;4971603;28;20121;-78
2022/06/07 03:10:57;;;;;;;5.25;3.30;;;;;;;;;;4971773;28;20030;-77
2022/06/07 03:13:22;;;;;;;10.65;3.72;;;;;;;;;;4971925;28;20022;-77
2022/06/07 03:15:48;;;;;;;7.45;3.88;;;;;;;;;;4971513;28;20041;-77
2022/06/07 03:18:14;;;;;;;4.20;3.60;;;;;;;;;;4972473;28;20058;-78
2022/06/07 03:20:41;;;;;;;9.15;3.50;;;;;;;;;;4956999;28;20425;-77
2022/06/07 03:23:07;;;;;;;9.48;3.80;;;;;;;;;;4988118;28;20073;-78
2022/06/07 03:25:33;;;;;;;4.63;3.30;;;;;;;;;;4990963;28;20054;-78
2022/06/07 03:27:59;;;;;;;6.30;4.07;;;;;;;;;;4990920;28;20065;-78
2022/06/07 03:30:25;;;;;;;4.63;3.40;;;;;;;;;;4992051;28;20470;-79
2022/06/07 03:32:51;;;;;;;4.13;3.70;;;;;;;;;;4990955;28;20033;-78
2022/06/07 03:35:16;;;;;;;7.32;4.13;;;;;;;;;;4992194;28;20471;-78
2022/06/07 03:37:43;;;;;;;8.02;3.85;;;;;;;;;;4991978;28;20038;-78
2022/06/07 03:40:11;;;;;;;7.80;3.83;;;;;;;;;;4990577;28;20033;-77
2022/06/07 03:42:37;;;;;;;3.90;3.35;;;;;;;;;;4989627;28;20041;-79
2022/06/07 03:45:03;;;;;;;5.57;3.72;;;;;;;;;;4991830;28;20034;-79
2022/06/07 03:47:29;;;;;;;7.95;3.53;;;;;;;;;;4990213;28;20030;-78
2022/06/07 03:49:54;;;;;;;4.47;4.07;;;;;;;;;;4990363;28;20419;-79
2022/06/07 03:52:21;;;;;;;4.78;3.38;;;;;;;;;;4990460;28;20034;-78
2022/06/07 03:54:49;;;;;;;8.55;3.70;;;;;;;;;;4990178;28;20117;-78
2022/06/07 03:57:14;;;;;;;8.13;4.43;;;;;;;;;;4990259;28;20586;-77
2022/06/07 03:59:40;;;;;;;4.72;3.33;;;;;;;;;;4990043;28;20347;-79
2022/06/07 04:02:06;;;;;;;4.13;3.50;;;;;;;;;;4990537;28;20026;-78
2022/06/07 04:04:33;;;;;;;5.43;4.50;;;;;;;;;;4991520;28;20081;-78
2022/06/07 04:09:43;;;;;;;4.32;3.88;;;;;;;;;;4991750;28;20034;-79
2022/06/07 04:12:14;;;;;;;5.38;4.50;;;;;;;;;;4991332;28;20026;-78
2022/06/07 04:14:41;;;;;;;;;;;;;;;;;;5002121;28;20501;-76
2022/06/07 04:17:07;;;;;;;6.38;4.20;;;;;;;;;;5006827;28;19909;-79
2022/06/07 04:19:38;;;;;;;5.82;4.53;;;;;;;;;;5006663;28;20029;-79
2022/06/07 04:22:05;;;;;;;6.03;4.90;;;;;;;;;;4982020;28;20110;-78
2022/06/07 04:24:31;;;;;;;8.13;5.32;;;;;;;;;;4954194;28;20045;-78
2022/06/07 04:26:57;;;;;;;11.07;5.80;;;;;;;;;;4970876;28;20037;-78
2022/06/07 04:29:23;;;;;;;7.10;4.40;;;;;;;;;;4971811;28;20101;-74
2022/06/07 04:31:49;;;;;;;8.32;5.97;;;;;;;;;;4970072;28;20074;-74
2022/06/07 04:34:14;;;;;;;8.68;4.88;;;;;;;;;;4970447;28;20430;-74
2022/06/07 04:36:40;;;;;;;7.28;4.78;;;;;;;;;;4969875;28;20037;-74
2022/06/07 04:39:07;;;;;;;7.40;4.68;;;;;;;;;;4970196;28;20035;-75
2022/06/07 04:41:33;;;;;;;10.50;5.07;;;;;;;;;;4969823;28;20045;-73
2022/06/07 04:43:59;;;;;;;8.93;5.13;;;;;;;;;;4969775;28;20128;-73
2022/06/07 04:46:26;;;;;;;7.22;5.10;;;;;;;;;;4971223;28;20107;-73
2022/06/07 04:48:52;;;;;;;6.68;4.47;;;;;;;;;;4971076;28;20030;-72
2022/06/07 04:51:24;;;;;;;5.95;4.30;;;;;;;;;;4970087;28;20026;-72
2022/06/07 04:53:51;;;;;;;8.10;4.50;;;;;;;;;;4969515;28;20041;-74
2022/06/07 04:56:20;;;;;;;6.78;4.28;;;;;;;;;;4953401;28;20041;-73
2022/06/07 04:58:46;;;;;;;6.93;4.22;;;;;;;;;;4969656;28;20125;-72
2022/06/07 05:01:21;;;;;;;7.05;4.18;;;;;;;;;;4969331;28;20129;-73
2022/06/07 05:03:48;;;;;;;6.90;3.42;;;;;;;;;;4969412;28;20062;-73
2022/06/07 05:06:32;;;;;;;4.53;3.67;;;;;;;;;;4969830;28;20125;-74
2022/06/07 05:09:20;;;;;;;9.77;4.10;;;;;;;;;;4984029;28;20030;-73
2022/06/07 05:11:51;;;;;;;7.93;5.18;;;;;;;;;;4998554;28;20530;-73
2022/06/07 05:14:17;;;;;;;8.20;5.30;;;;;;;;;;4997725;28;20034;-73
2022/06/07 05:16:43;;;;;;;5.72;4.57;;;;;;;;;;4983734;28;20139;-73
2022/06/07 05:19:10;;;;;;;4.70;3.65;;;;;;;;;;5004779;28;20106;-73
2022/06/07 05:21:36;;;;;;;5.57;3.35;;;;;;;;;;4985021;28;20572;-75
2022/06/07 05:24:02;;;;;;;4.38;3.33;;;;;;;;;;4968699;28;20029;-72
2022/06/07 05:26:37;;;;;;;10.50;3.33;;;;;;;;;;4968671;28;20110;-75
2022/06/07 05:29:04;;;;;;;4.32;3.25;;;;;;;;;;4975210;28;20033;-72
2022/06/07 05:31:30;;;;;;;4.80;3.55;;;;;;;;;;4983971;28;20034;-71
2022/06/07 05:33:56;;;;;;;8.00;4.00;;;;;;;;;;4987407;28;20479;-73
2022/06/07 05:36:22;;;;;;;13.10;9.80;;;;;;;;;;4990443;28;20032;-72
2022/06/07 05:38:48;;;;;;;9.80;5.13;;;;;;;;;;4990433;28;20026;-71
2022/06/07 05:41:20;;;;;;;7.78;4.38;;;;;;;;;;5003483;28;20029;-71
2022/06/07 05:43:46;;;;;;;9.32;4.00;;;;;;;;;;5001820;28;20378;-72
2022/06/07 05:46:15;;;;;;;8.00;5.10;;;;;;;;;;4991925;28;20390;-72
2022/06/07 05:48:40;;;;;;;9.88;4.05;;;;;;;;;;5001988;28;20022;-73
2022/06/07 05:51:09;;;;;;;6.30;4.30;;;;;;;;;;4998141;28;20438;-73
2022/06/07 05:53:34;;;;;;;6.43;1.23;;;;;;;;;;4990748;28;20319;-73
2022/06/07 05:56:08;;;;;;;0.63;0.63;;;;;;;;;;4994506;28;20494;-75
2022/06/07 05:58:35;;;;;;;1.02;0.80;;;;;;;;;;5017283;28;20030;-76
2022/06/07 06:01:00;;;;;;;0.57;0.08;;;;;;;;;;4987872;28;20050;-74
2022/06/07 06:03:26;;;;;;;2.90;0.45;;;;;;;;;;4988655;28;20072;-73
2022/06/07 06:05:51;;;;;;;0.15;0.15;;;;;;;;;;5005574;28;20250;-75
2022/06/07 06:11:14;;;;;;;0.10;0.08;;;;;;;;;;5001282;28;20072;-74
2022/06/07 06:13:40;;;;;;;0.45;0.43;;;;;;;;;;4998205;28;20084;-75
2022/06/07 06:16:14;;;;;;;0.38;0.25;;;;;;;;;;4987425;28;20108;-73
2022/06/07 06:18:40;;;;;;;0.63;0.47;;;;;;;;;;4981775;28;20044;-76
2022/06/07 06:21:06;;;;;;;0.10;0.10;;;;;;;;;;4981008;28;20076;-74
2022/06/07 06:23:32;;;;;;;0.05;0.05;;;;;;;;;;4983186;28;20455;-74
2022/06/07 06:25:58;;;;;;;1.08;0.50;;;;;;;;;;4996926;28;20061;-74
2022/06/07 06:28:25;;;;;;;2.10;1.75;;;;;;;;;;5001350;28;20030;-72
2022/06/07 06:30:52;;;;;;;0.40;0.15;;;;;;;;;;4979631;28;20085;-73
2022/06/07 06:33:19;;;;;;;0.45;0.40;;;;;;;;;;4981940;28;20046;-75
2022/06/07 06:35:53;;;;;;;0.63;0.63;;;;;;;;;;4946234;28;20061;-75
2022/06/07 06:38:20;;;;;;;0.10;0.00;;;;;;;;;;4975321;28;20027;-74
2022/06/07 06:40:47;;;;;;;0.20;0.20;;;;;;;;;;4975020;28;20811;-73
2022/06/07 06:43:16;;;;;;;0.13;0.13;;;;;;;;;;4984427;28;20805;-74
2022/06/07 06:45:42;;;;;;;7.07;3.00;;;;;;;;;;4996103;28;20704;-72
2022/06/07 06:48:09;;;;;;;7.53;5.53;;;;;;;;;;4985290;28;20029;-75
2022/06/07 06:50:36;;;;;;;6.57;5.88;;;;;;;;;;4980461;28;20030;-74
2022/06/07 06:53:02;;;;;;;7.85;5.30;;;;;;;;;;4983435;28;20378;-75
2022/06/07 06:55:28;;;;;;;5.57;4.45;;;;;;;;;;4978669;28;20745;-74
2022/06/07 06:57:54;;;;;;;5.88;4.60;;;;;;;;;;4983579;28;20113;-76
2022/06/07 07:00:20;;;;;;;11.65;6.93;;;;;;;;;;4983882;28;20044;-73
2022/06/07 07:02:46;;;;;;;8.05;6.68;;;;;;;;;;4983436;28;20034;-76
2022/06/07 07:05:13;;;;;;;5.85;4.38;;;;;;;;;;4984769;28;20080;-76
2022/06/07 07:07:40;;;;;;;5.13;4.63;;;;;;;;;;4996643;28;20037;-75
2022/06/07 07:10:08;;;;;;;6.65;5.00;;;;;;;;;;4994884;28;20044;-77
2022/06/07 07:12:34;;;;;;;5.05;4.55;;;;;;;;;;4999708;28;20130;-74
2022/06/07 07:15:00;;;;;;;9.13;5.25;;;;;;;;;;4985747;28;20034;-75
2022/06/07 07:17:26;;;;;;;10.25;5.85;;;;;;;;;;4980097;28;20049;-72
2022/06/07 07:19:52;;;;;;;8.93;5.72;;;;;;;;;;4985012;28;20116;-75
2022/06/07 07:22:18;;;;;;;10.90;8.18;;;;;;;;;;4980325;28;20167;-74
2022/06/07 07:24:44;;;;;;;8.85;6.32;;;;;;;;;;4982198;28;20037;-75
2022/06/07 07:27:10;;;;;;;9.38;6.40;;;;;;;;;;4984156;28;20033;-73
2022/06/07 07:29:37;;;;;;;7.32;5.43;;;;;;;;;;4990892;28;20471;-75
2022/06/07 07:32:06;;;;;;;6.30;4.88;;;;;;;;;;4989825;28;20030;-77
2022/06/07 07:34:32;;;;;;;9.48;4.50;;;;;;;;;;4996260;28;20483;-72
2022/06/07 07:36:58;;;;;;;6.43;5.47;;;;;;;;;;5000235;28;20045;-74
2022/06/07 07:39:25;;;;;;;10.23;6.97;;;;;;;;;;4983315;28;20038;-73
2022/06/07 07:41:52;;;;;;;8.20;4.75;;;;;;;;;;4998619;28;20030;-74
2022/06/07 07:44:19;;;;;;;7.20;4.60;;;;;;;;;;4984107;28;20605;-75
2022/06/07 07:46:47;;;;;;;5.05;3.85;;;;;;;;;;4981855;28;20026;-77
2022/06/07 07:49:15;;;;;;;5.07;3.83;;;;;;;;;;4974825;28;20047;-75
2022/06/07 07:51:44;;;;;;;5.20;3.38;;;;;;;;;;4983561;28;20121;-73
2022/06/07 07:54:11;;;;;;;4.75;3.33;;;;;;;;;;4981127;28;20387;-75
2022/06/07 07:56:38;;;;;;;8.95;4.60;;;;;;;;;;4982210;28;20670;-75
2022/06/07 07:59:05;;;;;;;5.72;4.07;;;;;;;;;;4986772;28;20045;-74
2022/06/07 08:01:33;;;;;;;5.25;4.32;;;;;;;;;;4980418;28;20041;-74
2022/06/07 08:04:01;;;;;;;8.50;4.18;;;;;;;;;;4982761;28;20046;-75
2022/06/07 08:06:29;;;;;;;4.10;3.70;;;;;;;;;;4977802;28;20126;-73
2022/06/07 08:08:57;;;;;;;4.68;4.28;;;;;;;;;;4981728;28;20061;-75
2022/06/07 08:11:26;;;;;;;6.35;4.65;;;;;;;;;;4984134;28;20025;-75
2022/06/07 08:13:52;;;;;;;8.20;4.82;;;;;;;;;;4981567;28;20105;-77
2022/06/07 08:16:18;;;;;;;7.65;4.35;;;;;;;;;;4997439;28;20042;-78
2022/06/07 08:18:45;;;;;;;7.70;4.70;;;;;;;;;;4977296;28;20035;-76
2022/06/07 08:21:20;;;;;;;6.38;3.80;;;;;;;;;;4980087;28;20037;-76
2022/06/07 08:23:47;;;;;;;4.95;3.88;;;;;;;;;;4980647;28;20641;-75
2022/06/07 08:26:13;;;;;;;7.18;4.05;;;;;;;;;;4982064;28;20030;-78
2022/06/07 08:28:40;;;;;;;8.90;4.05;;;;;;;;;;4978742;28;20489;-73
2022/06/07 08:31:17;;;;;;;7.90;4.95;;;;;;;;;;4981640;28;20045;-77
2022/06/07 08:39:11;;;;;;;8.27;5.05;;;;;;;;;;4981442;28;20033;-77
2022/06/07 08:41:54;;;;;;;7.57;5.85;;;;;;;;;;4983535;28;20038;-75
2022/06/07 08:44:31;;;;;;;8.68;6.97;;;;;;;;;;4983824;28;20044;-74
2022/06/07 08:47:10;;;;;;;8.55;5.70;;;;;;;;;;4977260;28;20057;-74
2022/06/07 08:49:36;;;;;;;6.30;5.28;;;;;;;;;;4977773;28;20574;-75
2022/06/07 08:52:33;;;;;;;7.35;4.55;;;;;;;;;;4984266;28;20042;-76
2022/06/07 08:55:01;;;;;;;6.65;4.60;;;;;;;;;;4983228;28;20737;-74
2022/06/07 08:57:31;;;;;;;6.95;5.45;;;;;;;;;;4978807;28;20848;-75
2022/06/07 09:00:23;;;;;;;6.18;5.53;;;;;;;;;;4982494;28;20176;-78
2022/06/07 09:03:17;;;;;;;6.30;4.63;;;;;;;;;;4994299;28;20702;-78
2022/06/07 09:05:43;;;;;;;12.98;5.47;;;;;;;;;;4979171;28;20117;-74
2022/06/07 09:08:12;;;;;;;5.78;5.03;;;;;;;;;;4993025;28;20035;-77
2022/06/07 09:13:35;;;;;;;13.13;9.48;;;;;;;;;;4996903;28;20100;-77
2022/06/07 09:16:01;;;;;;;7.80;5.55;;;;;;;;;;4994903;28;20085;-74
2022/06/07 09:18:30;;;;;;;13.52;6.78;;;;;;;;;;4980734;28;20046;-79
2022/06/07 09:21:24;;;;;;;8.80;6.43;;;;;;;;;;4980844;28;20078;-76
2022/06/07 09:23:51;;;;;;;6.53;4.85;;;;;;;;;;4980463;28;20054;-73
2022/06/07 09:26:36;;;;;;;6.05;4.47;;;;;;;;;;4978183;28;20122;-76
2022/06/07 09:29:23;;;;;;;5.32;4.13;;;;;;;;;;4979500;28;20044;-76
2022/06/07 09:31:51;;;;;;;5.72;3.95;;;;;;;;;;4980110;28;20109;-74
2022/06/07 09:34:29;;;;;;;8.50;4.30;;;;;;;;;;4983994;28;20030;-76
2022/06/07 09:36:59;;;;;;;12.02;7.22;;;;;;;;;;4974186;28;20061;-73
2022/06/07 09:39:29;;;;;;;5.93;4.30;;;;;;;;;;4977742;28;20772;-73
2022/06/07 09:42:17;;;;;;;5.80;5.25;;;;;;;;;;4974637;28;20034;-76
2022/06/07 09:45:27;;;;;;;5.35;4.05;;;;;;;;;;4975838;28;20109;-75
2022/06/07 09:47:53;;;;;;;6.80;4.68;;;;;;;;;;4988313;28;20037;-74
2022/06/07 09:50:32;;;;;;;8.88;5.55;;;;;;;;;;4981407;28;20022;-74
2022/06/07 09:53:07;;;;;;;8.68;5.70;;;;;;;;;;4982950;28;20110;-76
2022/06/07 09:55:57;;;;;;;7.47;5.22;;;;;;;;;;4980503;28;20467;-75
2022/06/07 09:58:28;;;;;;;8.77;5.20;;;;;;;;;;4980598;28;20083;-77
2022/06/07 10:01:00;;;;;;;5.15;3.63;;;;;;;;;;4982824;28;20029;-75
2022/06/07 10:03:48;;;;;;;10.32;5.70;;;;;;;;;;4973659;28;20083;-76
2022/06/07 10:06:18;;;;;;;7.95;3.92;;;;;;;;;;4994733;28;20034;-75
2022/06/07 10:08:43;;;;;;;5.82;4.00;;;;;;;;;;4994350;28;20045;-78
2022/06/07 10:11:22;;;;;;;6.72;3.90;;;;;;;;;;4980382;28;20034;-72
2022/06/07 10:14:28;;;;;;;5.32;3.95;;;;;;;;;;4986769;28;20041;-77
2022/06/07 10:17:10;;;;;;;6.72;4.22;;;;;;;;;;5015713;28;20119;-74
2022/06/07 10:20:09;;;;;;;4.93;4.40;;;;;;;;;;4983974;28;20042;-78
2022/06/07 10:23:11;;;;;;;6.28;4.30;;;;;;;;;;4978366;28;20054;-76
2022/06/07 10:25:50;;;;;;;9.25;3.63;;;;;;;;;;4978883;28;20042;-74
2022/06/07 10:29:03;;;;;;;4.00;3.30;;;;;;;;;;4993083;28;20679;-74
2022/06/07 10:31:35;;;;;;;12.32;6.20;;;;;;;;;;4989940;28;20657;-73
2022/06/07 10:34:06;;;;;;;9.63;5.20;;;;;;;;;;4982676;28;20030;-76
2022/06/07 10:36:45;;;;;;;9.40;6.05;;;;;;;;;;4977831;28;20045;-74
2022/06/07 10:39:31;;;;;;;9.38;5.13;;;;;;;;;;4980254;28;20026;-74
2022/06/07 10:42:09;;;;;;;11.48;5.07;;;;;;;;;;4982169;28;20077;-76
2022/06/07 10:44:39;;;;;;;9.55;3.97;;;;;;;;;;4984903;28;20026;-75
2022/06/07 10:47:14;;;;;;;8.63;4.25;;;;;;;;;;4998958;28;20034;-73
2022/06/07 10:49:54;;;;;;;5.13;3.78;;;;;;;;;;4999524;28;20087;-73
2022/06/07 10:52:51;;;;;;;5.45;3.78;;;;;;;;;;4982920;28;20053;-75
2022/06/07 10:55:51;;;;;;;5.30;3.45;;;;;;;;;;4982660;28;20712;-73
2022/06/07 10:58:29;;;;;;;10.40;3.90;;;;;;;;;;4982041;28;20050;-75
2022/06/07 11:01:14;;;;;;;6.80;3.00;;;;;;;;;;4979901;28;20034;-75
2022/06/07 11:04:09;;;;;;;6.22;3.30;;;;;;;;;;4984200;28;20088;-75
2022/06/07 11:09:42;;;;;;;5.25;3.42;;;;;;;;;;4983405;28;20044;-78
2022/06/07 11:12:25;;;;;;;3.25;2.95;;;;;;;;;;4984780;28;20121;-75
2022/06/07 11:15:10;;;;;;;7.43;4.10;;;;;;;;;;4984896;28;20406;-74
2022/06/07 11:18:00;;;;;;;4.90;3.58;;;;;;;;;;4978752;28;20430;-76
2022/06/07 11:20:30;;;;;;;2.63;2.42;;;;;;;;;;4995883;28;20032;-73
2022/06/07 11:23:25;;;;;;;3.42;2.50;;;;;;;;;;4981016;28;20062;-75
2022/06/07 11:26:02;;;;;;;3.92;2.17;;;;;;;;;;4978991;28;20124;-73
2022/06/07 11:28:32;;;;;;;3.80;1.88;;;;;;;;;;4983413;28;20051;-76
2022/06/07 11:31:33;;;;;;;17.60;13.05;;;;;;;;;;4996545;28;20729;-74
2022/06/07 11:34:10;;;;;;;3.55;2.83;;;;;;;;;;4983791;28;20042;-76
2022/06/07 11:36:40;;;;;;;2.50;2.30;;;;;;;;;;4975373;28;20030;-79
2022/06/07 11:39:20;;;;;;;3.20;2.50;;;;;;;;;;4991657;28;20029;-75
2022/06/07 11:41:51;;;;;;;3.83;2.75;;;;;;;;;;4979480;28;20117;-75
2022/06/07 11:44:16;;;;;;;2.42;2.00;;;;;;;;;;4997347;28;20018;-75
2022/06/07 11:46:51;;;;;;;2.55;2.22;;;;;;;;;;4987575;28;20459;-77
2022/06/07 11:49:20;;;;;;;5.30;3.00;;;;;;;;;;5005455;28;20225;-75
2022/06/07 11:52:04;;;;;;;5.45;3.33;;;;;;;;;;4996517;28;20028;-78
2022/06/07 11:54:51;;;;;;;7.38;3.40;;;;;;;;;;4994460;28;20133;-75
2022/06/07 11:57:26;;;;;;;4.10;3.35;;;;;;;;;;4982692;28;20030;-76
2022/06/07 11:59:55;;;;;;;4.32;3.28;;;;;;;;;;4988164;28;20053;-78
2022/06/07 12:02:28;;;;;;;4.18;3.20;;;;;;;;;;4989964;28;20034;-78
2022/06/07 12:04:59;;;;;;;2.40;2.20;;;;;;;;;;4989910;28;20038;-78
2022/06/07 12:07:50;;;;;;;4.95;3.92;;;;;;;;;;4986510;28;20148;-75
2022/06/07 12:10:19;;;;;;;3.30;2.95;;;;;;;;;;4989420;28;20038;-76
2022/06/07 12:12:56;;;;;;;5.20;4.40;;;;;;;;;;4979896;28;20398;-75
2022/06/07 12:15:37;;;;;;;10.02;5.65;;;;;;;;;;4975717;28;20117;-76
2022/06/07 12:18:20;;;;;;;16.02;13.82;;;;;;;;;;4980379;28;20098;-74
2022/06/07 12:21:07;;;;;;;2.83;2.53;;;;;;;;;;4989623;28;20101;-74
2022/06/07 12:23:37;;;;;;;3.50;2.58;;;;;;;;;;4983460;28;20230;-75
2022/06/07 12:26:06;;;;;;;3.03;2.67;;;;;;;;;;4990670;28;20205;-76
2022/06/07 12:28:38;;;;;;;3.42;3.13;;;;;;;;;;5005458;28;20030;-74
2022/06/07 12:31:13;;;;;;;3.55;2.45;;;;;;;;;;4996508;28;20066;-75
2022/06/07 12:33:38;;;;;;;4.50;3.70;;;;;;;;;;4992378;28;20030;-76
2022/06/07 12:36:25;;;;;;;4.25;2.35;;;;;;;;;;4978420;28;20048;-75
2022/06/07 12:38:52;;;;;;;5.00;3.50;;;;;;;;;;4982736;28;20494;-75
2022/06/07 12:41:22;;;;;;;3.13;2.78;;;;;;;;;;4998254;28;20063;-77
2022/06/07 12:43:54;;;;;;;3.25;2.95;;;;;;;;;;5010562;28;20036;-75
2022/06/07 12:46:22;;;;;;;2.90;2.53;;;;;;;;;;4989680;28;20030;-77
2022/06/07 12:48:50;;;;;;;3.95;3.25;;;;;;;;;;4993988;28;20030;-76
2022/06/07 12:51:28;;;;;;;3.92;2.60;;;;;;;;;;4982074;28;20149;-78
2022/06/07 12:54:00;;;;;;;4.88;3.13;;;;;;;;;;4989650;28;20421;-75
2022/06/07 12:56:29;;;;;;;2.65;2.45;;;;;;;;;;4990125;28;20419;-78
2022/06/07 12:58:57;;;;;;;6.70;3.28;;;;;;;;;;4994465;28;20034;-77
2022/06/07 13:01:32;;;;;;;3.42;3.10;;;;;;;;;;4993809;28;20088;-74
2022/06/07 13:04:02;;;;;;;5.88;2.80;;;;;;;;;;4994859;28;20089;-77
2022/06/07 13:06:28;;;;;;;3.67;2.70;;;;;;;;;;4989883;28;20037;-76
2022/06/07 13:09:16;;;;;;;3.00;2.80;;;;;;;;;;4990834;28;20152;-76
2022/06/07 13:11:41;;;;;;;3.38;3.00;;;;;;;;;;4990282;28;20053;-77
2022/06/07 13:14:11;;;;;;;2.25;2.00;;;;;;;;;;4980006;28;20042;-79
2022/06/07 13:16:42;;;;;;;3.83;2.65;;;;;;;;;;4996673;28;20491;-78
2022/06/07 13:19:13;;;;;;;4.57;3.33;;;;;;;;;;4986799;28;20038;-75
2022/06/07 13:21:53;;;;;;;3.72;3.20;;;;;;;;;;4992781;28;20046;-77
2022/06/07 13:24:27;;;;;;;3.25;2.53;;;;;;;;;;4993072;28;20034;-77
2022/06/07 13:27:02;;;;;;;4.43;3.17;;;;;;;;;;4980399;28;20049;-78
2022/06/07 13:29:33;;;;;;;12.10;7.43;;;;;;;;;;4992617;28;20124;-76
2022/06/07 13:32:03;;;;;;;6.87;4.27;;;;;;;;;;4983389;28;20490;-77
2022/06/07 13:34:32;;;;;;;9.23;6.10;;;;;;;;;;4993851;28;20066;-75
2022/06/07 13:37:14;;;;;;;5.88;3.40;;;;;;;;;;4992595;28;20030;-78
2022/06/07 13:40:07;;;;;;;3.60;1.90;;;;;;;;;;4996056;28;20343;-75
2022/06/07 13:42:42;;;;;;;21.05;15.40;;;;;;;;;;4989488;28;20049;-80
2022/06/07 13:45:13;;;;;;;21.42;5.68;;;;;;;;;;4982679;28;20061;-79
2022/06/07 13:47:58;;;;;;;5.80;2.90;;;;;;;;;;4982978;28;20566;-73
2022/06/07 13:53:21;;;;;;;2.88;2.00;;;;;;;;;;4989690;28;20517;-78
2022/06/07 13:55:51;;;;;;;4.57;3.23;;;;;;;;;;4988311;28;20053;-77
2022/06/07 13:58:18;;;;;;;4.57;2.72;;;;;;;;;;4985374;28;20284;-75
2022/06/07 14:00:45;;;;;;;12.15;4.60;;;;;;;;;;5006669;28;20034;-73
2022/06/07 14:03:25;;;;;;;3.25;2.75;;;;;;;;;;5011198;28;20076;-76
2022/06/07 14:05:51;;;;;;;2.88;2.15;;;;;;;;;;4993914;28;20049;-75
2022/06/07 14:08:17;;;;;;;2.90;1.55;;;;;;;;;;4991900;28;20069;-75
2022/06/07 14:10:47;;;;;;;2.80;2.38;;;;;;;;;;4966900;28;20569;-77
2022/06/07 14:13:13;;;;;;;3.15;2.00;;;;;;;;;;4987417;28;20030;-79
2022/06/07 14:15:40;;;;;;;19.67;2.72;;;;;;;;;;4983747;28;20937;-78
2022/06/07 14:18:10;;;;;;;3.70;2.22;;;;;;;;;;4990064;28;20503;-75
2022/06/07 14:20:38;;;;;;;2.50;1.52;;;;;;;;;;4987168;28;20046;-75
2022/06/07 14:23:08;;;;;;;3.10;2.13;;;;;;;;;;4988478;28;20042;-76
2022/06/07 14:25:34;;;;;;;3.63;1.52;;;;;;;;;;4977543;28;20034;-77
2022/06/07 14:28:00;;;;;;;2.38;1.88;;;;;;;;;;5006770;28;20429;-74
2022/06/07 14:30:26;;;;;;;3.58;2.35;;;;;;;;;;4997485;28;20083;-74
2022/06/07 14:32:56;;;;;;;5.60;2.50;;;;;;;;;;5006934;28;20632;-74
2022/06/07 14:35:23;;;;;;;4.82;2.10;;;;;;;;;;5011128;28;20034;-76
2022/06/07 14:37:54;;;;;;;4.15;2.30;;;;;;;;;;5007386;28;20053;-75
2022/06/07 14:40:29;;;;;;;3.17;2.10;;;;;;;;;;4990408;28;20032;-75
2022/06/07 14:42:55;;;;;;;4.82;2.25;;;;;;;;;;5003052;28;20123;-75
2022/06/07 14:45:25;;;;;;;3.10;1.85;;;;;;;;;;4994409;28;20455;-76
2022/06/07 14:47:58;;;;;;;7.80;2.28;;;;;;;;;;5005301;28;20022;-77
2022/06/07 14:50:24;;;;;;;3.25;2.30;;;;;;;;;;4991960;28;20692;-76
2022/06/07 14:52:51;;;;;;;4.07;2.40;;;;;;;;;;5001781;28;20033;-75
2022/06/07 14:55:21;;;;;;;3.17;2.03;;;;;;;;;;4999582;28;20097;-76
2022/06/07 14:57:49;;;;;;;5.57;2.20;;;;;;;;;;5005033;28;20125;-75
2022/06/07 15:00:21;;;;;;;3.75;1.85;;;;;;;;;;4992137;28;20025;-75
2022/06/07 15:02:51;;;;;;;1.98;1.63;;;;;;;;;;4999966;28;20620;-74
2022/06/07 15:05:23;;;;;;;10.27;8.98;;;;;;;;;;5005234;28;20547;-74
2022/06/07 15:07:53;;;;;;;37.20;17.75;;;;;;;;;;5002058;28;20032;-77
2022/06/07 15:10:21;;;;;;;3.03;2.80;;;;;;;;;;4980991;28;20030;-74
2022/06/07 15:12:47;;;;;;;16.23;3.53;;;;;;;;;;4989150;28;20031;-75
2022/06/07 15:15:13;;;;;;;2.75;1.60;;;;;;;;;;4990719;28;20034;-75
2022/06/07 15:17:42;;;;;;;3.72;1.77;;;;;;;;;;5007283;28;20026;-74
2022/06/07 15:20:21;;;;;;;2.38;1.65;;;;;;;;;;4995550;28;20029;-75
2022/06/07 15:22:47;;;;;;;3.08;1.88;;;;;;;;;;5010979;28;20550;-75
2022/06/07 15:25:21;;;;;;;5.05;1.95;;;;;;;;;;4986924;28;20119;-75
2022/06/07 15:27:49;;;;;;;4.63;2.00;;;;;;;;;;4973186;28;20531;-75
2022/06/07 15:30:16;;;;;;;5.07;1.40;;;;;;;;;;4990795;28;20172;-76